sensor_id;sensor_type;location;lat;lon;timestamp;temperature;humidity
85959;DHT22;76529;42.660;23.328;2024-03-29T00:01:08;16.98;35.66
85959;DHT22;76529;42.660;23.328;2024-03-29T00:03:34;16.96;35.68
85959;DHT22;76529;42.660;23.328;2024-03-29T00:05:59;16.94;35.83
85959;DHT22;76529;42.660;23.328;2024-03-29T00:08:26;16.89;35.77
85959;DHT22;76529;42.660;23.328;2024-03-29T00:10:51;16.85;35.80
85959;DHT22;76529;42.660;23.328;2024-03-29T00:13:17;16.85;35.80
85959;DHT22;76529;42.660;23.328;2024-03-29T00:15:45;16.81;35.84
85959;DHT22;76529;42.660;23.328;2024-03-29T00:18:11;16.78;35.93
85959;DHT22;76529;42.660;23.328;2024-03-29T00:20:36;16.77;35.96
85959;DHT22;76529;42.660;23.328;2024-03-29T00:23:02;16.72;36.00
85959;DHT22;76529;42.660;23.328;2024-03-29T00:25:27;16.74;36.06
85959;DHT22;76529;42.660;23.328;2024-03-29T00:28:11;16.71;36.16
85959;DHT22;76529;42.660;23.328;2024-03-29T00:30:37;16.64;36.18
85959;DHT22;76529;42.660;23.328;2024-03-29T00:33:02;16.63;36.25
85959;DHT22;76529;42.660;23.328;2024-03-29T00:35:28;16.60;36.22
85959;DHT22;76529;42.660;23.328;2024-03-29T00:37:53;16.58;36.30
85959;DHT22;76529;42.660;23.328;2024-03-29T00:40:19;16.50;36.52
85959;DHT22;76529;42.660;23.328;2024-03-29T00:42:44;16.47;36.50
85959;DHT22;76529;42.660;23.328;2024-03-29T00:45:10;16.44;36.50
85959;DHT22;76529;42.660;23.328;2024-03-29T00:47:35;16.41;36.51
85959;DHT22;76529;42.660;23.328;2024-03-29T00:50:01;16.44;36.56
85959;DHT22;76529;42.660;23.328;2024-03-29T00:52:26;16.43;36.56
85959;DHT22;76529;42.660;23.328;2024-03-29T00:54:52;16.40;36.58
85959;DHT22;76529;42.660;23.328;2024-03-29T00:57:18;16.39;36.64
85959;DHT22;76529;42.660;23.328;2024-03-29T00:59:44;16.37;36.66
85959;DHT22;76529;42.660;23.328;2024-03-29T01:02:12;16.36;36.78
85959;DHT22;76529;42.660;23.328;2024-03-29T01:04:38;16.33;36.71
85959;DHT22;76529;42.660;23.328;2024-03-29T01:07:05;16.34;36.70
85959;DHT22;76529;42.660;23.328;2024-03-29T01:09:31;16.33;36.69
85959;DHT22;76529;42.660;23.328;2024-03-29T01:11:56;16.31;36.71
85959;DHT22;76529;42.660;23.328;2024-03-29T01:14:22;16.31;36.74
85959;DHT22;76529;42.660;23.328;2024-03-29T01:16:47;16.30;36.82
85959;DHT22;76529;42.660;23.328;2024-03-29T01:19:13;16.24;36.92
85959;DHT22;76529;42.660;23.328;2024-03-29T01:21:38;16.17;37.01
85959;DHT22;76529;42.660;23.328;2024-03-29T01:24:04;16.12;37.07
85959;DHT22;76529;42.660;23.328;2024-03-29T01:26:30;16.13;37.09
85959;DHT22;76529;42.660;23.328;2024-03-29T01:28:55;16.12;37.16
85959;DHT22;76529;42.660;23.328;2024-03-29T01:31:22;16.16;37.17
85959;DHT22;76529;42.660;23.328;2024-03-29T01:33:47;16.13;37.22
85959;DHT22;76529;42.660;23.328;2024-03-29T01:36:13;16.10;37.24
85959;DHT22;76529;42.660;23.328;2024-03-29T01:38:38;16.08;37.21
85959;DHT22;76529;42.660;23.328;2024-03-29T01:41:04;16.10;37.20
85959;DHT22;76529;42.660;23.328;2024-03-29T01:43:30;16.08;37.21
85959;DHT22;76529;42.660;23.328;2024-03-29T01:45:55;16.08;37.22
85959;DHT22;76529;42.660;23.328;2024-03-29T01:48:22;16.03;37.27
85959;DHT22;76529;42.660;23.328;2024-03-29T01:50:48;16.05;37.27
85959;DHT22;76529;42.660;23.328;2024-03-29T01:53:16;16.03;37.34
85959;DHT22;76529;42.660;23.328;2024-03-29T01:55:42;16.02;37.34
85959;DHT22;76529;42.660;23.328;2024-03-29T01:58:09;16.02;37.40
85959;DHT22;76529;42.660;23.328;2024-03-29T02:00:41;16.00;37.44
85959;DHT22;76529;42.660;23.328;2024-03-29T02:03:07;15.96;37.50
85959;DHT22;76529;42.660;23.328;2024-03-29T02:05:42;15.96;37.58
85959;DHT22;76529;42.660;23.328;2024-03-29T02:08:09;15.95;37.56
85959;DHT22;76529;42.660;23.328;2024-03-29T02:10:35;15.96;37.66
85959;DHT22;76529;42.660;23.328;2024-03-29T02:13:01;15.95;37.67
85959;DHT22;76529;42.660;23.328;2024-03-29T02:15:30;15.92;37.75
85959;DHT22;76529;42.660;23.328;2024-03-29T02:17:57;15.95;37.76
85959;DHT22;76529;42.660;23.328;2024-03-29T02:20:23;15.95;37.74
85959;DHT22;76529;42.660;23.328;2024-03-29T02:22:59;15.92;37.80
85959;DHT22;76529;42.660;23.328;2024-03-29T02:25:25;15.90;37.89
85959;DHT22;76529;42.660;23.328;2024-03-29T02:27:51;15.88;37.89
85959;DHT22;76529;42.660;23.328;2024-03-29T02:30:17;15.86;37.95
85959;DHT22;76529;42.660;23.328;2024-03-29T02:32:43;15.85;37.91
85959;DHT22;76529;42.660;23.328;2024-03-29T02:35:09;15.85;37.91
85959;DHT22;76529;42.660;23.328;2024-03-29T02:37:35;15.82;37.93
85959;DHT22;76529;42.660;23.328;2024-03-29T02:40:02;15.83;37.95
85959;DHT22;76529;42.660;23.328;2024-03-29T02:42:28;15.83;37.91
85959;DHT22;76529;42.660;23.328;2024-03-29T02:44:53;15.81;37.91
85959;DHT22;76529;42.660;23.328;2024-03-29T02:47:21;15.82;37.98
85959;DHT22;76529;42.660;23.328;2024-03-29T02:49:46;15.77;38.01
85959;DHT22;76529;42.660;23.328;2024-03-29T02:52:12;15.77;38.11
85959;DHT22;76529;42.660;23.328;2024-03-29T02:54:37;15.72;38.07
85959;DHT22;76529;42.660;23.328;2024-03-29T02:57:03;15.66;38.00
85959;DHT22;76529;42.660;23.328;2024-03-29T02:59:28;15.63;38.02
85959;DHT22;76529;42.660;23.328;2024-03-29T03:01:54;15.62;38.05
85959;DHT22;76529;42.660;23.328;2024-03-29T03:04:19;15.58;38.05
85959;DHT22;76529;42.660;23.328;2024-03-29T03:06:45;15.54;38.07
85959;DHT22;76529;42.660;23.328;2024-03-29T03:09:10;15.54;38.13
85959;DHT22;76529;42.660;23.328;2024-03-29T03:11:54;15.47;38.20
85959;DHT22;76529;42.660;23.328;2024-03-29T03:14:19;15.41;38.32
85959;DHT22;76529;42.660;23.328;2024-03-29T03:16:45;15.45;38.35
85959;DHT22;76529;42.660;23.328;2024-03-29T03:19:10;15.41;38.49
85959;DHT22;76529;42.660;23.328;2024-03-29T03:21:36;15.38;38.50
85959;DHT22;76529;42.660;23.328;2024-03-29T03:24:02;15.38;38.54
85959;DHT22;76529;42.660;23.328;2024-03-29T03:26:29;15.40;38.57
85959;DHT22;76529;42.660;23.328;2024-03-29T03:28:55;15.38;38.59
85959;DHT22;76529;42.660;23.328;2024-03-29T03:31:20;15.37;38.61
85959;DHT22;76529;42.660;23.328;2024-03-29T03:33:46;15.35;38.67
85959;DHT22;76529;42.660;23.328;2024-03-29T03:36:11;15.30;38.72
85959;DHT22;76529;42.660;23.328;2024-03-29T03:38:37;15.28;38.76
85959;DHT22;76529;42.660;23.328;2024-03-29T03:41:04;15.24;38.79
85959;DHT22;76529;42.660;23.328;2024-03-29T03:43:29;15.21;38.91
85959;DHT22;76529;42.660;23.328;2024-03-29T03:46:00;15.21;38.89
85959;DHT22;76529;42.660;23.328;2024-03-29T03:48:26;15.19;38.94
85959;DHT22;76529;42.660;23.328;2024-03-29T03:50:52;15.16;38.96
85959;DHT22;76529;42.660;23.328;2024-03-29T03:53:17;15.10;39.01
85959;DHT22;76529;42.660;23.328;2024-03-29T03:55:43;15.07;39.03
85959;DHT22;76529;42.660;23.328;2024-03-29T03:58:08;15.08;39.00
85959;DHT22;76529;42.660;23.328;2024-03-29T04:00:34;15.07;39.03
85959;DHT22;76529;42.660;23.328;2024-03-29T04:02:59;15.06;39.08
85959;DHT22;76529;42.660;23.328;2024-03-29T04:05:25;15.06;39.21
85959;DHT22;76529;42.660;23.328;2024-03-29T04:07:51;15.00;39.29
85959;DHT22;76529;42.660;23.328;2024-03-29T04:10:17;14.96;39.81
85959;DHT22;76529;42.660;23.328;2024-03-29T04:12:42;14.87;39.69
85959;DHT22;76529;42.660;23.328;2024-03-29T04:15:08;14.86;39.68
85959;DHT22;76529;42.660;23.328;2024-03-29T04:17:34;14.84;39.69
85959;DHT22;76529;42.660;23.328;2024-03-29T04:20:00;14.83;39.51
85959;DHT22;76529;42.660;23.328;2024-03-29T04:22:29;14.80;39.50
85959;DHT22;76529;42.660;23.328;2024-03-29T04:24:55;14.79;39.47
85959;DHT22;76529;42.660;23.328;2024-03-29T04:27:20;14.76;39.55
85959;DHT22;76529;42.660;23.328;2024-03-29T04:29:46;14.73;39.58
85959;DHT22;76529;42.660;23.328;2024-03-29T04:32:11;14.73;39.71
85959;DHT22;76529;42.660;23.328;2024-03-29T04:34:37;14.71;39.72
85959;DHT22;76529;42.660;23.328;2024-03-29T04:37:02;14.68;39.71
85959;DHT22;76529;42.660;23.328;2024-03-29T04:39:28;14.68;39.78
85959;DHT22;76529;42.660;23.328;2024-03-29T04:41:54;14.65;39.75
85959;DHT22;76529;42.660;23.328;2024-03-29T04:44:27;14.63;39.79
85959;DHT22;76529;42.660;23.328;2024-03-29T04:46:53;14.65;39.88
85959;DHT22;76529;42.660;23.328;2024-03-29T04:49:19;14.65;39.93
85959;DHT22;76529;42.660;23.328;2024-03-29T04:51:49;14.65;39.98
85959;DHT22;76529;42.660;23.328;2024-03-29T04:54:17;14.66;40.01
85959;DHT22;76529;42.660;23.328;2024-03-29T04:56:43;14.68;39.99
85959;DHT22;76529;42.660;23.328;2024-03-29T04:59:08;14.68;40.08
85959;DHT22;76529;42.660;23.328;2024-03-29T05:01:35;14.69;40.24
85959;DHT22;76529;42.660;23.328;2024-03-29T05:04:01;14.66;40.28
85959;DHT22;76529;42.660;23.328;2024-03-29T05:06:27;14.66;40.31
85959;DHT22;76529;42.660;23.328;2024-03-29T05:08:52;14.71;40.38
85959;DHT22;76529;42.660;23.328;2024-03-29T05:11:18;14.69;40.47
85959;DHT22;76529;42.660;23.328;2024-03-29T05:13:44;14.75;40.43
85959;DHT22;76529;42.660;23.328;2024-03-29T05:16:10;14.76;40.52
85959;DHT22;76529;42.660;23.328;2024-03-29T05:18:36;14.76;40.59
85959;DHT22;76529;42.660;23.328;2024-03-29T05:21:01;14.79;40.63
85959;DHT22;76529;42.660;23.328;2024-03-29T05:23:26;14.80;40.67
85959;DHT22;76529;42.660;23.328;2024-03-29T05:25:52;14.83;40.71
85959;DHT22;76529;42.660;23.328;2024-03-29T05:28:18;14.86;40.70
85959;DHT22;76529;42.660;23.328;2024-03-29T05:30:43;14.90;40.73
85959;DHT22;76529;42.660;23.328;2024-03-29T05:33:09;14.92;40.73
85959;DHT22;76529;42.660;23.328;2024-03-29T05:35:34;14.93;40.78
85959;DHT22;76529;42.660;23.328;2024-03-29T05:38:00;14.96;40.87
85959;DHT22;76529;42.660;23.328;2024-03-29T05:40:26;14.97;41.00
85959;DHT22;76529;42.660;23.328;2024-03-29T05:42:53;15.00;41.12
85959;DHT22;76529;42.660;23.328;2024-03-29T05:45:26;15.04;41.20
85959;DHT22;76529;42.660;23.328;2024-03-29T05:47:54;15.06;41.25
85959;DHT22;76529;42.660;23.328;2024-03-29T05:50:20;15.14;41.33
85959;DHT22;76529;42.660;23.328;2024-03-29T05:52:45;15.21;41.26
85959;DHT22;76529;42.660;23.328;2024-03-29T05:55:11;15.28;41.34
85959;DHT22;76529;42.660;23.328;2024-03-29T05:57:36;15.37;41.30
85959;DHT22;76529;42.660;23.328;2024-03-29T06:00:11;15.51;41.25
85959;DHT22;76529;42.660;23.328;2024-03-29T06:02:37;15.63;41.24
85959;DHT22;76529;42.660;23.328;2024-03-29T06:05:03;15.73;41.24
85959;DHT22;76529;42.660;23.328;2024-03-29T06:07:30;15.90;41.26
85959;DHT22;76529;42.660;23.328;2024-03-29T06:09:58;16.02;41.21
85959;DHT22;76529;42.660;23.328;2024-03-29T06:12:25;16.16;41.05
85959;DHT22;76529;42.660;23.328;2024-03-29T06:14:50;16.29;41.13
85959;DHT22;76529;42.660;23.328;2024-03-29T06:17:35;16.43;40.97
85959;DHT22;76529;42.660;23.328;2024-03-29T06:20:02;16.57;40.89
85959;DHT22;76529;42.660;23.328;2024-03-29T06:22:29;16.71;40.83
85959;DHT22;76529;42.660;23.328;2024-03-29T06:24:56;16.87;40.78
85959;DHT22;76529;42.660;23.328;2024-03-29T06:27:29;17.02;40.67
85959;DHT22;76529;42.660;23.328;2024-03-29T06:29:55;17.20;40.50
85959;DHT22;76529;42.660;23.328;2024-03-29T06:32:20;17.39;40.37
85959;DHT22;76529;42.660;23.328;2024-03-29T06:34:46;17.59;40.16
85959;DHT22;76529;42.660;23.328;2024-03-29T06:37:11;17.77;39.97
85959;DHT22;76529;42.660;23.328;2024-03-29T06:39:37;17.95;39.86
85959;DHT22;76529;42.660;23.328;2024-03-29T06:42:03;18.16;39.59
85959;DHT22;76529;42.660;23.328;2024-03-29T06:44:28;18.38;39.39
85959;DHT22;76529;42.660;23.328;2024-03-29T06:46:54;18.53;39.32
85959;DHT22;76529;42.660;23.328;2024-03-29T06:49:19;18.76;38.89
85959;DHT22;76529;42.660;23.328;2024-03-29T06:51:45;19.00;39.11
85959;DHT22;76529;42.660;23.328;2024-03-29T06:54:11;19.23;39.29
85959;DHT22;76529;42.660;23.328;2024-03-29T06:56:36;19.50;37.99
85959;DHT22;76529;42.660;23.328;2024-03-29T06:59:01;19.72;38.37
85959;DHT22;76529;42.660;23.328;2024-03-29T07:01:27;19.94;38.49
85959;DHT22;76529;42.660;23.328;2024-03-29T07:03:52;20.20;38.31
85959;DHT22;76529;42.660;23.328;2024-03-29T07:06:18;20.44;37.70
85959;DHT22;76529;42.660;23.328;2024-03-29T07:08:43;20.71;37.92
85959;DHT22;76529;42.660;23.328;2024-03-29T07:11:09;20.95;37.86
85959;DHT22;76529;42.660;23.328;2024-03-29T07:13:36;21.22;37.50
85959;DHT22;76529;42.660;23.328;2024-03-29T07:16:02;21.47;37.68
85959;DHT22;76529;42.660;23.328;2024-03-29T07:18:28;21.77;37.56
85959;DHT22;76529;42.660;23.328;2024-03-29T07:20:54;22.07;37.44
85959;DHT22;76529;42.660;23.328;2024-03-29T07:23:20;22.38;37.40
85959;DHT22;76529;42.660;23.328;2024-03-29T07:28:25;23.04;36.63
85959;DHT22;76529;42.660;23.328;2024-03-29T07:30:51;23.35;36.95
85959;DHT22;76529;42.660;23.328;2024-03-29T07:33:18;23.61;35.59
85959;DHT22;76529;42.660;23.328;2024-03-29T07:35:46;23.83;35.73
85959;DHT22;76529;42.660;23.328;2024-03-29T07:38:13;24.02;35.66
85959;DHT22;76529;42.660;23.328;2024-03-29T07:40:42;24.26;34.54
85959;DHT22;76529;42.660;23.328;2024-03-29T07:43:08;24.37;35.03
85959;DHT22;76529;42.660;23.328;2024-03-29T07:45:33;24.47;34.40
85959;DHT22;76529;42.660;23.328;2024-03-29T07:47:59;24.60;34.53
85959;DHT22;76529;42.660;23.328;2024-03-29T07:50:24;24.75;34.88
85959;DHT22;76529;42.660;23.328;2024-03-29T07:52:50;24.99;34.70
85959;DHT22;76529;42.660;23.328;2024-03-29T07:55:16;25.28;35.01
85959;DHT22;76529;42.660;23.328;2024-03-29T07:57:41;25.56;34.70
85959;DHT22;76529;42.660;23.328;2024-03-29T08:00:07;25.84;34.29
85959;DHT22;76529;42.660;23.328;2024-03-29T08:02:35;26.13;34.38
85959;DHT22;76529;42.660;23.328;2024-03-29T08:05:01;26.39;34.40
85959;DHT22;76529;42.660;23.328;2024-03-29T08:07:26;26.68;34.37
85959;DHT22;76529;42.660;23.328;2024-03-29T08:09:52;26.97;33.95
85959;DHT22;76529;42.660;23.328;2024-03-29T08:12:17;27.22;32.50
85959;DHT22;76529;42.660;23.328;2024-03-29T08:14:43;27.30;32.16
85959;DHT22;76529;42.660;23.328;2024-03-29T08:17:09;27.30;32.41
85959;DHT22;76529;42.660;23.328;2024-03-29T08:19:35;27.35;31.88
85959;DHT22;76529;42.660;23.328;2024-03-29T08:22:01;27.41;31.73
85959;DHT22;76529;42.660;23.328;2024-03-29T08:24:27;27.47;32.27
85959;DHT22;76529;42.660;23.328;2024-03-29T08:26:53;27.62;31.82
85959;DHT22;76529;42.660;23.328;2024-03-29T08:29:18;27.74;32.08
85959;DHT22;76529;42.660;23.328;2024-03-29T08:31:44;27.80;30.16
85959;DHT22;76529;42.660;23.328;2024-03-29T08:34:09;27.84;31.48
85959;DHT22;76529;42.660;23.328;2024-03-29T08:36:38;27.98;31.40
85959;DHT22;76529;42.660;23.328;2024-03-29T08:39:04;28.09;31.32
85959;DHT22;76529;42.660;23.328;2024-03-29T08:41:29;28.27;31.61
85959;DHT22;76529;42.660;23.328;2024-03-29T08:43:55;28.50;30.99
85959;DHT22;76529;42.660;23.328;2024-03-29T08:46:20;28.63;30.75
85959;DHT22;76529;42.660;23.328;2024-03-29T08:48:46;28.72;30.67
85959;DHT22;76529;42.660;23.328;2024-03-29T08:51:11;28.86;30.23
85959;DHT22;76529;42.660;23.328;2024-03-29T08:53:37;28.98;29.50
85959;DHT22;76529;42.660;23.328;2024-03-29T08:56:02;29.08;30.26
85959;DHT22;76529;42.660;23.328;2024-03-29T08:58:28;29.18;30.23
85959;DHT22;76529;42.660;23.328;2024-03-29T09:00:54;29.15;29.21
85959;DHT22;76529;42.660;23.328;2024-03-29T09:03:23;29.14;29.35
85959;DHT22;76529;42.660;23.328;2024-03-29T09:05:49;29.18;28.87
85959;DHT22;76529;42.660;23.328;2024-03-29T09:08:16;29.19;28.28
85959;DHT22;76529;42.660;23.328;2024-03-29T09:10:42;29.19;28.75
85959;DHT22;76529;42.660;23.328;2024-03-29T09:13:07;29.16;28.37
85959;DHT22;76529;42.660;23.328;2024-03-29T09:15:34;29.12;27.90
85959;DHT22;76529;42.660;23.328;2024-03-29T09:18:00;29.11;28.51
85959;DHT22;76529;42.660;23.328;2024-03-29T09:20:32;29.09;28.10
85959;DHT22;76529;42.660;23.328;2024-03-29T09:22:57;28.98;27.25
85959;DHT22;76529;42.660;23.328;2024-03-29T09:25:23;28.95;27.85
85959;DHT22;76529;42.660;23.328;2024-03-29T09:27:48;28.87;26.35
85959;DHT22;76529;42.660;23.328;2024-03-29T09:30:14;28.77;25.62
85959;DHT22;76529;42.660;23.328;2024-03-29T09:32:40;28.68;26.82
85959;DHT22;76529;42.660;23.328;2024-03-29T09:35:06;28.61;27.21
85959;DHT22;76529;42.660;23.328;2024-03-29T09:37:32;28.54;27.07
85959;DHT22;76529;42.660;23.328;2024-03-29T09:40:02;28.51;26.45
85959;DHT22;76529;42.660;23.328;2024-03-29T09:42:33;28.53;27.42
85959;DHT22;76529;42.660;23.328;2024-03-29T09:45:02;28.71;27.66
85959;DHT22;76529;42.660;23.328;2024-03-29T09:47:29;28.87;27.50
85959;DHT22;76529;42.660;23.328;2024-03-29T09:49:56;29.07;27.42
85959;DHT22;76529;42.660;23.328;2024-03-29T09:52:23;29.12;26.59
85959;DHT22;76529;42.660;23.328;2024-03-29T09:54:49;29.18;26.81
85959;DHT22;76529;42.660;23.328;2024-03-29T09:57:14;29.14;26.70
85959;DHT22;76529;42.660;23.328;2024-03-29T09:59:42;29.16;25.99
85959;DHT22;76529;42.660;23.328;2024-03-29T10:02:17;29.12;26.49
85959;DHT22;76529;42.660;23.328;2024-03-29T10:04:46;29.05;26.39
85959;DHT22;76529;42.660;23.328;2024-03-29T10:07:14;29.02;26.60
85959;DHT22;76529;42.660;23.328;2024-03-29T10:09:42;28.97;26.66
85959;DHT22;76529;42.660;23.328;2024-03-29T10:12:08;29.02;26.83
85959;DHT22;76529;42.660;23.328;2024-03-29T10:14:43;29.09;26.44
85959;DHT22;76529;42.660;23.328;2024-03-29T10:17:15;29.02;26.66
85959;DHT22;76529;42.660;23.328;2024-03-29T10:19:40;29.01;26.71
85959;DHT22;76529;42.660;23.328;2024-03-29T10:22:07;29.05;26.78
85959;DHT22;76529;42.660;23.328;2024-03-29T10:24:33;29.02;26.65
85959;DHT22;76529;42.660;23.328;2024-03-29T10:26:59;29.04;26.93
85959;DHT22;76529;42.660;23.328;2024-03-29T10:29:28;29.14;27.01
85959;DHT22;76529;42.660;23.328;2024-03-29T10:31:55;29.26;26.60
85959;DHT22;76529;42.660;23.328;2024-03-29T10:34:21;29.16;26.30
85959;DHT22;76529;42.660;23.328;2024-03-29T10:36:47;29.14;26.58
85959;DHT22;76529;42.660;23.328;2024-03-29T10:39:15;29.18;26.56
85959;DHT22;76529;42.660;23.328;2024-03-29T10:41:42;29.23;26.53
85959;DHT22;76529;42.660;23.328;2024-03-29T10:44:10;29.35;26.68
85959;DHT22;76529;42.660;23.328;2024-03-29T10:46:37;29.43;25.59
85959;DHT22;76529;42.660;23.328;2024-03-29T10:49:06;29.49;26.26
85959;DHT22;76529;42.660;23.328;2024-03-29T10:51:33;29.49;26.30
85959;DHT22;76529;42.660;23.328;2024-03-29T10:53:59;29.50;26.31
85959;DHT22;76529;42.660;23.328;2024-03-29T10:56:26;29.49;25.58
85959;DHT22;76529;42.660;23.328;2024-03-29T10:58:56;29.36;25.53
85959;DHT22;76529;42.660;23.328;2024-03-29T11:01:26;29.25;26.18
85959;DHT22;76529;42.660;23.328;2024-03-29T11:03:54;29.25;26.36
85959;DHT22;76529;42.660;23.328;2024-03-29T11:06:26;29.33;26.40
85959;DHT22;76529;42.660;23.328;2024-03-29T11:08:56;29.40;26.44
85959;DHT22;76529;42.660;23.328;2024-03-29T11:11:24;29.48;26.35
85959;DHT22;76529;42.660;23.328;2024-03-29T11:14:01;29.55;26.44
85959;DHT22;76529;42.660;23.328;2024-03-29T11:16:28;29.59;26.03
85959;DHT22;76529;42.660;23.328;2024-03-29T11:18:53;29.62;25.99
85959;DHT22;76529;42.660;23.328;2024-03-29T11:21:19;29.59;25.31
85959;DHT22;76529;42.660;23.328;2024-03-29T11:23:50;29.48;25.41
85959;DHT22;76529;42.660;23.328;2024-03-29T11:26:16;29.36;26.06
85959;DHT22;76529;42.660;23.328;2024-03-29T11:28:51;29.36;26.17
85959;DHT22;76529;42.660;23.328;2024-03-29T11:31:16;29.29;25.84
85959;DHT22;76529;42.660;23.328;2024-03-29T11:36:15;29.05;26.19
85959;DHT22;76529;42.660;23.328;2024-03-29T11:38:47;29.01;26.30
85959;DHT22;76529;42.660;23.328;2024-03-29T11:41:15;28.99;26.11
85959;DHT22;76529;42.660;23.328;2024-03-29T11:43:42;29.01;26.26
85959;DHT22;76529;42.660;23.328;2024-03-29T11:46:14;28.99;26.21
85959;DHT22;76529;42.660;23.328;2024-03-29T11:48:43;28.92;26.35
85959;DHT22;76529;42.660;23.328;2024-03-29T11:51:13;28.84;26.44
85959;DHT22;76529;42.660;23.328;2024-03-29T11:53:41;28.75;26.27
85959;DHT22;76529;42.660;23.328;2024-03-29T11:56:07;28.74;26.27
85959;DHT22;76529;42.660;23.328;2024-03-29T11:58:33;28.71;26.11
85959;DHT22;76529;42.660;23.328;2024-03-29T12:01:00;28.72;26.20
85959;DHT22;76529;42.660;23.328;2024-03-29T12:03:28;28.64;26.36
85959;DHT22;76529;42.660;23.328;2024-03-29T12:05:55;28.57;26.51
85959;DHT22;76529;42.660;23.328;2024-03-29T12:08:24;28.53;26.68
85959;DHT22;76529;42.660;23.328;2024-03-29T12:10:50;28.47;26.79
85959;DHT22;76529;42.660;23.328;2024-03-29T12:13:17;28.46;26.69
85959;DHT22;76529;42.660;23.328;2024-03-29T12:15:43;28.47;26.67
85959;DHT22;76529;42.660;23.328;2024-03-29T12:18:09;28.47;26.68
85959;DHT22;76529;42.660;23.328;2024-03-29T12:20:35;28.49;26.77
85959;DHT22;76529;42.660;23.328;2024-03-29T12:23:05;28.47;26.62
85959;DHT22;76529;42.660;23.328;2024-03-29T12:25:32;28.49;26.61
85959;DHT22;76529;42.660;23.328;2024-03-29T12:27:59;28.46;26.64
85959;DHT22;76529;42.660;23.328;2024-03-29T12:30:26;28.43;26.76
85959;DHT22;76529;42.660;23.328;2024-03-29T12:35:27;28.40;26.81
85959;DHT22;76529;42.660;23.328;2024-03-29T12:37:53;28.37;26.73
85959;DHT22;76529;42.660;23.328;2024-03-29T12:40:19;28.32;26.90
85959;DHT22;76529;42.660;23.328;2024-03-29T12:42:51;28.29;26.97
85959;DHT22;76529;42.660;23.328;2024-03-29T12:45:21;28.27;26.79
85959;DHT22;76529;42.660;23.328;2024-03-29T12:47:48;28.23;26.76
85959;DHT22;76529;42.660;23.328;2024-03-29T12:50:31;28.19;26.73
85959;DHT22;76529;42.660;23.328;2024-03-29T12:52:59;28.13;26.84
85959;DHT22;76529;42.660;23.328;2024-03-29T12:55:26;28.01;26.71
85959;DHT22;76529;42.660;23.328;2024-03-29T12:58:05;27.91;26.66
85959;DHT22;76529;42.660;23.328;2024-03-29T13:00:34;27.82;26.54
85959;DHT22;76529;42.660;23.328;2024-03-29T13:03:00;27.77;26.57
85959;DHT22;76529;42.660;23.328;2024-03-29T13:05:26;27.72;26.46
85959;DHT22;76529;42.660;23.328;2024-03-29T13:07:53;27.65;26.58
85959;DHT22;76529;42.660;23.328;2024-03-29T13:10:18;27.61;26.69
85959;DHT22;76529;42.660;23.328;2024-03-29T13:12:47;27.52;26.77
85959;DHT22;76529;42.660;23.328;2024-03-29T13:15:26;27.50;26.78
85959;DHT22;76529;42.660;23.328;2024-03-29T13:17:52;27.41;26.65
85959;DHT22;76529;42.660;23.328;2024-03-29T13:20:18;27.33;26.67
85959;DHT22;76529;42.660;23.328;2024-03-29T13:22:45;27.26;26.77
85959;DHT22;76529;42.660;23.328;2024-03-29T13:25:16;27.16;27.04
85959;DHT22;76529;42.660;23.328;2024-03-29T13:27:42;27.10;27.08
85959;DHT22;76529;42.660;23.328;2024-03-29T13:30:10;27.04;27.17
85959;DHT22;76529;42.660;23.328;2024-03-29T13:32:36;27.02;27.13
85959;DHT22;76529;42.660;23.328;2024-03-29T13:35:03;27.04;26.94
85959;DHT22;76529;42.660;23.328;2024-03-29T13:37:44;27.03;26.88
85959;DHT22;76529;42.660;23.328;2024-03-29T13:40:13;26.99;26.93
85959;DHT22;76529;42.660;23.328;2024-03-29T13:42:39;26.97;26.90
85959;DHT22;76529;42.660;23.328;2024-03-29T13:45:05;26.94;26.75
85959;DHT22;76529;42.660;23.328;2024-03-29T13:47:38;26.92;26.70
85959;DHT22;76529;42.660;23.328;2024-03-29T13:50:05;26.86;26.69
85959;DHT22;76529;42.660;23.328;2024-03-29T13:52:31;26.83;26.43
85959;DHT22;76529;42.660;23.328;2024-03-29T13:54:58;26.80;26.66
85959;DHT22;76529;42.660;23.328;2024-03-29T13:57:23;26.76;26.63
85959;DHT22;76529;42.660;23.328;2024-03-29T13:59:49;26.76;26.60
85959;DHT22;76529;42.660;23.328;2024-03-29T14:02:18;26.76;26.57
85959;DHT22;76529;42.660;23.328;2024-03-29T14:04:44;26.73;26.19
85959;DHT22;76529;42.660;23.328;2024-03-29T14:07:11;26.69;26.54
85959;DHT22;76529;42.660;23.328;2024-03-29T14:09:41;26.69;26.59
85959;DHT22;76529;42.660;23.328;2024-03-29T14:12:07;26.66;26.65
85959;DHT22;76529;42.660;23.328;2024-03-29T14:14:33;26.66;26.80
85959;DHT22;76529;42.660;23.328;2024-03-29T14:16:59;26.68;26.91
85959;DHT22;76529;42.660;23.328;2024-03-29T14:19:36;26.65;26.89
85959;DHT22;76529;42.660;23.328;2024-03-29T14:22:02;26.63;26.65
85959;DHT22;76529;42.660;23.328;2024-03-29T14:24:28;26.62;26.73
85959;DHT22;76529;42.660;23.328;2024-03-29T14:26:58;26.62;26.67
85959;DHT22;76529;42.660;23.328;2024-03-29T14:29:24;26.62;26.67
85959;DHT22;76529;42.660;23.328;2024-03-29T14:31:50;26.57;26.47
85959;DHT22;76529;42.660;23.328;2024-03-29T14:34:16;26.59;26.59
85959;DHT22;76529;42.660;23.328;2024-03-29T14:36:42;26.57;26.51
85959;DHT22;76529;42.660;23.328;2024-03-29T14:39:08;26.55;26.63
85959;DHT22;76529;42.660;23.328;2024-03-29T14:41:34;26.52;26.58
85959;DHT22;76529;42.660;23.328;2024-03-29T14:44:02;26.51;26.48
85959;DHT22;76529;42.660;23.328;2024-03-29T14:46:28;26.46;26.64
85959;DHT22;76529;42.660;23.328;2024-03-29T14:48:53;26.48;26.66
85959;DHT22;76529;42.660;23.328;2024-03-29T14:51:19;26.48;26.60
85959;DHT22;76529;42.660;23.328;2024-03-29T14:53:47;26.45;26.59
85959;DHT22;76529;42.660;23.328;2024-03-29T14:56:18;26.42;26.63
85959;DHT22;76529;42.660;23.328;2024-03-29T14:58:43;26.39;26.56
85959;DHT22;76529;42.660;23.328;2024-03-29T15:01:10;26.39;26.48
85959;DHT22;76529;42.660;23.328;2024-03-29T15:03:35;26.36;26.50
85959;DHT22;76529;42.660;23.328;2024-03-29T15:06:01;26.38;26.56
85959;DHT22;76529;42.660;23.328;2024-03-29T15:08:27;26.36;26.63
85959;DHT22;76529;42.660;23.328;2024-03-29T15:11:00;26.36;26.74
85959;DHT22;76529;42.660;23.328;2024-03-29T15:13:26;26.35;26.71
85959;DHT22;76529;42.660;23.328;2024-03-29T15:15:56;26.34;26.83
85959;DHT22;76529;42.660;23.328;2024-03-29T15:18:22;26.34;26.83
85959;DHT22;76529;42.660;23.328;2024-03-29T15:20:59;26.32;26.85